EZY89CH EGBB-EDDB
Flight info
| Callsign | EZY89CH |
|---|---|
| Flight time | 1h 10m |
| Altitude | 37000 |
| Route | DTY P166 BANTO P155 SIVDA P137 REDFA L620 TACHA DCT BATEL T207 OGBER OGBER1R |
| Aircraft | A320/M-SDE3FGHIRWY/LB1 |
Departure
| Time | 2026-05-07 11:55 |
|---|---|
| Airport | Birmingham Airport (EGBB) |
Arrival
| Time | 2026-05-07 13:05 |
|---|---|
| Airport | Berlin Brandenburg Airport (EDDB) |
| Time | Latitude | Longitude | Altitude | Speed | Heading |
|---|---|---|---|---|---|
| 2026-05-07 11:09 | 52.45162 | -1.73377 | 324 ft | 0 kts | 141° |
| 2026-05-07 11:38 | 52.45162 | -1.73378 | 323 ft | 1 kts | 140° |
| 2026-05-07 11:38 | 52.45180 | -1.73402 | 323 ft | 3 kts | 141° |
| 2026-05-07 11:38 | 52.45196 | -1.73425 | 321 ft | 4 kts | 134° |
| 2026-05-07 11:39 | 52.45215 | -1.73453 | 323 ft | 4 kts | 161° |
| 2026-05-07 11:39 | 52.45217 | -1.73458 | 322 ft | 4 kts | 186° |
| 2026-05-07 11:39 | 52.45200 | -1.73479 | 323 ft | 3 kts | 236° |
| 2026-05-07 11:39 | 52.45195 | -1.73492 | 323 ft | 0 kts | 236° |
| 2026-05-07 11:43 | 52.45188 | -1.73509 | 323 ft | 2 kts | 236° |
| 2026-05-07 11:44 | 52.45179 | -1.73530 | 323 ft | 5 kts | 236° |
| 2026-05-07 11:44 | 52.45147 | -1.73609 | 323 ft | 9 kts | 236° |
| 2026-05-07 11:44 | 52.45115 | -1.73685 | 323 ft | 7 kts | 236° |
| 2026-05-07 11:44 | 52.45102 | -1.73755 | 323 ft | 6 kts | 276° |
| 2026-05-07 11:45 | 52.45125 | -1.73801 | 323 ft | 5 kts | 324° |
| 2026-05-07 11:45 | 52.45155 | -1.73836 | 323 ft | 7 kts | 326° |
| 2026-05-07 11:45 | 52.45209 | -1.73895 | 323 ft | 10 kts | 326° |
| 2026-05-07 11:45 | 52.45260 | -1.73953 | 323 ft | 8 kts | 326° |
| 2026-05-07 11:46 | 52.45304 | -1.74018 | 323 ft | 10 kts | 303° |
| 2026-05-07 11:46 | 52.45346 | -1.74153 | 322 ft | 16 kts | 296° |
| 2026-05-07 11:46 | 52.45395 | -1.74312 | 323 ft | 15 kts | 296° |
| 2026-05-07 11:46 | 52.45438 | -1.74453 | 323 ft | 13 kts | 297° |
| 2026-05-07 11:47 | 52.45482 | -1.74578 | 322 ft | 12 kts | 312° |
| 2026-05-07 11:47 | 52.45546 | -1.74653 | 323 ft | 11 kts | 326° |
| 2026-05-07 11:47 | 52.45618 | -1.74733 | 317 ft | 14 kts | 326° |
| 2026-05-07 11:47 | 52.45707 | -1.74831 | 312 ft | 17 kts | 326° |
| 2026-05-07 11:48 | 52.45806 | -1.74941 | 308 ft | 18 kts | 326° |
| 2026-05-07 11:48 | 52.45910 | -1.75056 | 307 ft | 20 kts | 326° |
| 2026-05-07 11:48 | 52.46036 | -1.75196 | 306 ft | 24 kts | 326° |
| 2026-05-07 11:48 | 52.46186 | -1.75362 | 303 ft | 27 kts | 326° |
| 2026-05-07 11:49 | 52.46348 | -1.75543 | 302 ft | 29 kts | 325° |
| 2026-05-07 11:49 | 52.46503 | -1.75715 | 303 ft | 21 kts | 326° |
| 2026-05-07 11:49 | 52.46588 | -1.75809 | 306 ft | 10 kts | 326° |
| 2026-05-07 11:49 | 52.46632 | -1.75859 | 307 ft | 5 kts | 324° |
| 2026-05-07 11:50 | 52.46640 | -1.75900 | 307 ft | 4 kts | 262° |
| 2026-05-07 11:50 | 52.46624 | -1.75944 | 307 ft | 4 kts | 232° |
| 2026-05-07 11:50 | 52.46621 | -1.75950 | 307 ft | 0 kts | 232° |
| 2026-05-07 11:53 | 52.46621 | -1.75951 | 307 ft | 0 kts | 232° |
| 2026-05-07 11:53 | 52.46603 | -1.75992 | 305 ft | 8 kts | 235° |
| 2026-05-07 11:53 | 52.46575 | -1.76061 | 305 ft | 7 kts | 236° |
| 2026-05-07 11:54 | 52.46541 | -1.76082 | 306 ft | 5 kts | 167° |
| 2026-05-07 11:54 | 52.46482 | -1.76021 | 311 ft | 27 kts | 146° |
| 2026-05-07 11:54 | 52.46114 | -1.75609 | 309 ft | 97 kts | 146° |
| 2026-05-07 11:54 | 52.45400 | -1.74816 | 325 ft | 149 kts | 146° |
| 2026-05-07 11:55 | 52.44495 | -1.73820 | 833 ft | 156 kts | 146° |
| 2026-05-07 11:55 | 52.43579 | -1.72839 | 1564 ft | 162 kts | 146° |
| 2026-05-07 11:55 | 52.42593 | -1.71762 | 1949 ft | 182 kts | 146° |
| 2026-05-07 11:55 | 52.41516 | -1.70589 | 2566 ft | 189 kts | 149° |
| 2026-05-07 11:56 | 52.40281 | -1.69828 | 3228 ft | 192 kts | 165° |
| 2026-05-07 11:56 | 52.38979 | -1.69282 | 3896 ft | 194 kts | 166° |
| 2026-05-07 11:56 | 52.37628 | -1.68608 | 4263 ft | 215 kts | 154° |
| 2026-05-07 11:56 | 52.36322 | -1.67340 | 4966 ft | 221 kts | 142° |
| 2026-05-07 11:57 | 52.35280 | -1.65468 | 5672 ft | 229 kts | 122° |
| 2026-05-07 11:57 | 52.34756 | -1.62890 | 6121 ft | 251 kts | 100° |
| 2026-05-07 11:57 | 52.34461 | -1.59969 | 6650 ft | 269 kts | 101° |
| 2026-05-07 11:57 | 52.33990 | -1.56987 | 7405 ft | 273 kts | 116° |
| 2026-05-07 11:58 | 52.33164 | -1.54215 | 8273 ft | 276 kts | 118° |
| 2026-05-07 11:58 | 52.32289 | -1.51405 | 9156 ft | 279 kts | 119° |
| 2026-05-07 11:58 | 52.31392 | -1.48571 | 10025 ft | 282 kts | 120° |
| 2026-05-07 11:58 | 52.30434 | -1.45746 | 10770 ft | 287 kts | 121° |
| 2026-05-07 11:59 | 52.29422 | -1.42920 | 11545 ft | 290 kts | 122° |
| 2026-05-07 11:59 | 52.28381 | -1.40068 | 12304 ft | 294 kts | 122° |
| 2026-05-07 11:59 | 52.27326 | -1.37186 | 13067 ft | 297 kts | 122° |
| 2026-05-07 11:59 | 52.26264 | -1.34270 | 13838 ft | 301 kts | 122° |
| 2026-05-07 12:00 | 52.25386 | -1.31048 | 14058 ft | 325 kts | 104° |
| 2026-05-07 12:00 | 52.25222 | -1.27244 | 14186 ft | 349 kts | 91° |
| 2026-05-07 12:00 | 52.25231 | -1.23237 | 14430 ft | 365 kts | 91° |
| 2026-05-07 12:00 | 52.25258 | -1.19059 | 14957 ft | 371 kts | 91° |
| 2026-05-07 12:01 | 52.25291 | -1.14824 | 15556 ft | 375 kts | 90° |
| 2026-05-07 12:01 | 52.25316 | -1.10539 | 16162 ft | 379 kts | 91° |
| 2026-05-07 12:01 | 52.25284 | -1.06226 | 16762 ft | 383 kts | 92° |
| 2026-05-07 12:01 | 52.25191 | -1.01860 | 17343 ft | 386 kts | 94° |
| 2026-05-07 12:02 | 52.25063 | -0.97468 | 17864 ft | 389 kts | 94° |
| 2026-05-07 12:02 | 52.24921 | -0.93031 | 18231 ft | 393 kts | 94° |
| 2026-05-07 12:02 | 52.24785 | -0.88570 | 18487 ft | 394 kts | 94° |
| 2026-05-07 12:02 | 52.24663 | -0.84151 | 18724 ft | 396 kts | 94° |
| 2026-05-07 12:03 | 52.24546 | -0.79659 | 18958 ft | 397 kts | 94° |
| 2026-05-07 12:03 | 52.24429 | -0.75143 | 19234 ft | 400 kts | 94° |
| 2026-05-07 12:03 | 52.24309 | -0.70599 | 19822 ft | 402 kts | 94° |
| 2026-05-07 12:03 | 52.24187 | -0.66028 | 20393 ft | 405 kts | 94° |
| 2026-05-07 12:04 | 52.24062 | -0.61432 | 20936 ft | 407 kts | 94° |
| 2026-05-07 12:04 | 52.23934 | -0.56797 | 21469 ft | 410 kts | 94° |
| 2026-05-07 12:04 | 52.23805 | -0.52136 | 21981 ft | 413 kts | 94° |
| 2026-05-07 12:04 | 52.23677 | -0.47506 | 22477 ft | 415 kts | 94° |
| 2026-05-07 12:05 | 52.23544 | -0.42784 | 22959 ft | 418 kts | 94° |
| 2026-05-07 12:05 | 52.23406 | -0.38032 | 23437 ft | 421 kts | 94° |
| 2026-05-07 12:05 | 52.23263 | -0.33253 | 23860 ft | 423 kts | 94° |
| 2026-05-07 12:05 | 52.23115 | -0.28456 | 24258 ft | 425 kts | 94° |
| 2026-05-07 12:06 | 52.22965 | -0.23632 | 24657 ft | 426 kts | 94° |
| 2026-05-07 12:06 | 52.22815 | -0.18804 | 25047 ft | 428 kts | 94° |
| 2026-05-07 12:06 | 52.22667 | -0.13955 | 25431 ft | 429 kts | 94° |
| 2026-05-07 12:06 | 52.22516 | -0.09085 | 25811 ft | 430 kts | 94° |
| 2026-05-07 12:07 | 52.22362 | -0.04207 | 26188 ft | 431 kts | 94° |
| 2026-05-07 12:07 | 52.22206 | 0.00618 | 26556 ft | 433 kts | 94° |
| 2026-05-07 12:07 | 52.22041 | 0.05532 | 26910 ft | 434 kts | 94° |
| 2026-05-07 12:07 | 52.21876 | 0.10451 | 27256 ft | 436 kts | 94° |
| 2026-05-07 12:08 | 52.21713 | 0.15389 | 27592 ft | 437 kts | 94° |
| 2026-05-07 12:08 | 52.21547 | 0.20340 | 27916 ft | 438 kts | 94° |
| 2026-05-07 12:08 | 52.21377 | 0.25313 | 28233 ft | 440 kts | 94° |
| 2026-05-07 12:08 | 52.21201 | 0.30302 | 28540 ft | 441 kts | 94° |
| 2026-05-07 12:09 | 52.21024 | 0.35298 | 28836 ft | 442 kts | 94° |
| 2026-05-07 12:09 | 52.20844 | 0.40310 | 29121 ft | 443 kts | 94° |
| 2026-05-07 12:09 | 52.20661 | 0.45335 | 29398 ft | 445 kts | 94° |
| 2026-05-07 12:09 | 52.20477 | 0.50365 | 29645 ft | 446 kts | 94° |
| 2026-05-07 12:10 | 52.20291 | 0.55345 | 29972 ft | 445 kts | 94° |
| 2026-05-07 12:10 | 52.20105 | 0.60371 | 30305 ft | 444 kts | 94° |
| 2026-05-07 12:10 | 52.19915 | 0.65387 | 30598 ft | 443 kts | 94° |
| 2026-05-07 12:10 | 52.19720 | 0.70394 | 30881 ft | 442 kts | 94° |
| 2026-05-07 12:11 | 52.19524 | 0.75397 | 31158 ft | 442 kts | 94° |
| 2026-05-07 12:11 | 52.19327 | 0.80397 | 31436 ft | 442 kts | 94° |
| 2026-05-07 12:11 | 52.19130 | 0.85394 | 31716 ft | 441 kts | 94° |
| 2026-05-07 12:11 | 52.18929 | 0.90380 | 32000 ft | 441 kts | 94° |
| 2026-05-07 12:12 | 52.18726 | 0.95365 | 32275 ft | 441 kts | 94° |
| 2026-05-07 12:12 | 52.18523 | 1.00275 | 32546 ft | 440 kts | 94° |
| 2026-05-07 12:12 | 52.18316 | 1.05257 | 32824 ft | 440 kts | 94° |
| 2026-05-07 12:12 | 52.18109 | 1.10224 | 33106 ft | 440 kts | 94° |
| 2026-05-07 12:13 | 52.17898 | 1.15195 | 33373 ft | 440 kts | 94° |
| 2026-05-07 12:13 | 52.17688 | 1.20156 | 33667 ft | 439 kts | 94° |
| 2026-05-07 12:13 | 52.17477 | 1.25118 | 33956 ft | 439 kts | 94° |
| 2026-05-07 12:13 | 52.17263 | 1.30071 | 34209 ft | 439 kts | 94° |
| 2026-05-07 12:14 | 52.17046 | 1.35028 | 34451 ft | 438 kts | 95° |
| 2026-05-07 12:14 | 52.16830 | 1.39915 | 34661 ft | 439 kts | 95° |
| 2026-05-07 12:14 | 52.16610 | 1.44879 | 34859 ft | 440 kts | 95° |
| 2026-05-07 12:14 | 52.16386 | 1.49850 | 35063 ft | 440 kts | 95° |
| 2026-05-07 12:15 | 52.16156 | 1.54834 | 35195 ft | 443 kts | 95° |
| 2026-05-07 12:15 | 52.15922 | 1.59838 | 35367 ft | 444 kts | 95° |
| 2026-05-07 12:15 | 52.15689 | 1.64849 | 35549 ft | 444 kts | 94° |
| 2026-05-07 12:15 | 52.15455 | 1.69869 | 35717 ft | 445 kts | 95° |
| 2026-05-07 12:16 | 52.15219 | 1.74898 | 35890 ft | 446 kts | 95° |
| 2026-05-07 12:16 | 52.14984 | 1.79863 | 36061 ft | 446 kts | 95° |
| 2026-05-07 12:16 | 52.14741 | 1.84905 | 36225 ft | 447 kts | 96° |
| 2026-05-07 12:16 | 52.14493 | 1.89951 | 36388 ft | 448 kts | 95° |
| 2026-05-07 12:17 | 52.14243 | 1.95007 | 36549 ft | 448 kts | 96° |
| 2026-05-07 12:17 | 52.13993 | 2.00066 | 36701 ft | 449 kts | 95° |
| 2026-05-07 12:17 | 52.13740 | 2.05139 | 36836 ft | 450 kts | 95° |
| 2026-05-07 12:17 | 52.13486 | 2.10223 | 37005 ft | 450 kts | 95° |
| 2026-05-07 12:18 | 52.13227 | 2.15312 | 37100 ft | 452 kts | 95° |
| 2026-05-07 12:18 | 52.12704 | 2.25466 | 37109 ft | 454 kts | 96° |
| 2026-05-07 12:19 | 52.12170 | 2.35696 | 37108 ft | 454 kts | 96° |
| 2026-05-07 12:19 | 52.11745 | 2.45942 | 37103 ft | 454 kts | 88° |
| 2026-05-07 12:20 | 52.12849 | 2.56043 | 37111 ft | 456 kts | 73° |
| 2026-05-07 12:20 | 52.14727 | 2.65837 | 37106 ft | 456 kts | 73° |
| 2026-05-07 12:21 | 52.16597 | 2.75719 | 37110 ft | 457 kts | 73° |
| 2026-05-07 12:21 | 52.18461 | 2.85607 | 37117 ft | 457 kts | 73° |
| 2026-05-07 12:22 | 52.20319 | 2.95508 | 37118 ft | 457 kts | 73° |
| 2026-05-07 12:22 | 52.22167 | 3.05431 | 37110 ft | 457 kts | 73° |
| 2026-05-07 12:23 | 52.23994 | 3.15299 | 37110 ft | 458 kts | 73° |
| 2026-05-07 12:23 | 52.25678 | 3.25305 | 37114 ft | 457 kts | 81° |
| 2026-05-07 12:24 | 52.26427 | 3.35581 | 37114 ft | 456 kts | 84° |
| 2026-05-07 12:24 | 52.27136 | 3.45867 | 37112 ft | 456 kts | 84° |
| 2026-05-07 12:25 | 52.27839 | 3.56169 | 37098 ft | 457 kts | 84° |
| 2026-05-07 12:25 | 52.28529 | 3.66417 | 37097 ft | 457 kts | 84° |
| 2026-05-07 12:26 | 52.29215 | 3.76745 | 37101 ft | 458 kts | 84° |
| 2026-05-07 12:26 | 52.29892 | 3.87083 | 37104 ft | 458 kts | 84° |
| 2026-05-07 12:27 | 52.30562 | 3.97430 | 37096 ft | 458 kts | 84° |
| 2026-05-07 12:27 | 52.31223 | 4.07719 | 37096 ft | 459 kts | 85° |
| 2026-05-07 12:28 | 52.31875 | 4.18091 | 37092 ft | 459 kts | 85° |
| 2026-05-07 12:28 | 52.32514 | 4.28466 | 37096 ft | 459 kts | 85° |
| 2026-05-07 12:29 | 52.33146 | 4.38866 | 37089 ft | 459 kts | 85° |
| 2026-05-07 12:29 | 52.33774 | 4.49258 | 37083 ft | 459 kts | 85° |
| 2026-05-07 12:30 | 52.34388 | 4.59585 | 37079 ft | 460 kts | 85° |
| 2026-05-07 12:30 | 52.35000 | 4.69992 | 37085 ft | 460 kts | 85° |
| 2026-05-07 12:31 | 52.35598 | 4.80400 | 37088 ft | 460 kts | 85° |
| 2026-05-07 12:31 | 52.36192 | 4.90806 | 37088 ft | 460 kts | 85° |
| 2026-05-07 12:32 | 52.36770 | 5.01228 | 37081 ft | 460 kts | 85° |
| 2026-05-07 12:32 | 52.37331 | 5.11578 | 37082 ft | 460 kts | 85° |
| 2026-05-07 12:33 | 52.38176 | 5.27212 | 37084 ft | 460 kts | 85° |
| 2026-05-07 12:33 | 52.38729 | 5.37650 | 37086 ft | 460 kts | 85° |
| 2026-05-07 12:34 | 52.39268 | 5.48085 | 37081 ft | 460 kts | 86° |
| 2026-05-07 12:34 | 52.39797 | 5.58457 | 37089 ft | 460 kts | 86° |
| 2026-05-07 12:35 | 52.40322 | 5.68916 | 37067 ft | 461 kts | 86° |
| 2026-05-07 12:35 | 52.40837 | 5.79366 | 37069 ft | 461 kts | 86° |
| 2026-05-07 12:36 | 52.41342 | 5.89832 | 37066 ft | 461 kts | 86° |
| 2026-05-07 12:36 | 52.41837 | 6.00233 | 37064 ft | 461 kts | 86° |
| 2026-05-07 12:37 | 52.42316 | 6.10706 | 37071 ft | 461 kts | 86° |
| 2026-05-07 12:37 | 52.42791 | 6.21177 | 37068 ft | 461 kts | 86° |
| 2026-05-07 12:38 | 52.43258 | 6.31656 | 37066 ft | 461 kts | 86° |
| 2026-05-07 12:38 | 52.43720 | 6.42063 | 37060 ft | 461 kts | 86° |
| 2026-05-07 12:39 | 52.44169 | 6.52542 | 37054 ft | 461 kts | 86° |
| 2026-05-07 12:39 | 52.44609 | 6.63028 | 37050 ft | 461 kts | 86° |
| 2026-05-07 12:40 | 52.45042 | 6.73522 | 37048 ft | 461 kts | 86° |
| 2026-05-07 12:40 | 52.45467 | 6.84014 | 37048 ft | 461 kts | 87° |
| 2026-05-07 12:41 | 52.45874 | 6.94450 | 37052 ft | 461 kts | 87° |
| 2026-05-07 12:41 | 52.46271 | 7.04949 | 37045 ft | 462 kts | 87° |
| 2026-05-07 12:42 | 52.46661 | 7.15456 | 37047 ft | 462 kts | 87° |
| 2026-05-07 12:42 | 52.47044 | 7.25964 | 37052 ft | 462 kts | 87° |
| 2026-05-07 12:43 | 52.47422 | 7.36404 | 37051 ft | 462 kts | 87° |
| 2026-05-07 12:43 | 52.47794 | 7.46916 | 37056 ft | 462 kts | 87° |
| 2026-05-07 12:44 | 52.48424 | 7.65814 | 37076 ft | 462 kts | 87° |
| 2026-05-07 12:44 | 52.49739 | 8.07903 | 37088 ft | 461 kts | 88° |
| 2026-05-07 12:45 | 52.50869 | 8.49593 | 37070 ft | 461 kts | 88° |
| 2026-05-07 12:45 | 52.51876 | 8.91572 | 37070 ft | 460 kts | 89° |
| 2026-05-07 12:46 | 52.52738 | 9.33659 | 37088 ft | 462 kts | 89° |
| 2026-05-07 12:46 | 52.53439 | 9.75664 | 37074 ft | 459 kts | 89° |
| 2026-05-07 12:47 | 52.54000 | 10.17621 | 37068 ft | 459 kts | 90° |
| 2026-05-07 12:47 | 52.54417 | 10.59410 | 36932 ft | 462 kts | 90° |
| 2026-05-07 12:48 | 52.54574 | 10.80470 | 35886 ft | 459 kts | 90° |
| 2026-05-07 12:48 | 52.54674 | 11.01427 | 34956 ft | 458 kts | 90° |
| 2026-05-07 12:48 | 52.54903 | 11.22562 | 31886 ft | 477 kts | 89° |
| 2026-05-07 12:48 | 52.55489 | 11.43797 | 29040 ft | 457 kts | 89° |
| 2026-05-07 12:49 | 52.55898 | 11.64459 | 26707 ft | 443 kts | 90° |
| 2026-05-07 12:49 | 52.56276 | 11.84441 | 24599 ft | 434 kts | 89° |
| 2026-05-07 12:49 | 52.56606 | 12.04142 | 22440 ft | 427 kts | 89° |
| 2026-05-07 12:49 | 52.56738 | 12.23042 | 20240 ft | 412 kts | 87° |
| 2026-05-07 12:50 | 52.58430 | 12.41491 | 18199 ft | 403 kts | 80° |
| 2026-05-07 12:50 | 52.60160 | 12.59442 | 16322 ft | 390 kts | 80° |
| 2026-05-07 12:50 | 52.58086 | 12.75935 | 14422 ft | 379 kts | 130° |
| 2026-05-07 12:50 | 52.49891 | 12.86336 | 12600 ft | 364 kts | 142° |
| 2026-05-07 12:51 | 52.41996 | 12.95920 | 10746 ft | 343 kts | 142° |
| 2026-05-07 12:51 | 52.34742 | 13.00327 | 9880 ft | 281 kts | 198° |
| 2026-05-07 12:51 | 52.33238 | 12.98603 | 9982 ft | 262 kts | 234° |
| 2026-05-07 12:51 | 52.32543 | 12.95875 | 9777 ft | 263 kts | 263° |
| 2026-05-07 12:52 | 52.32296 | 12.92970 | 9388 ft | 264 kts | 256° |
| 2026-05-07 12:52 | 52.31693 | 12.90134 | 8994 ft | 264 kts | 249° |
| 2026-05-07 12:52 | 52.31018 | 12.87339 | 8595 ft | 265 kts | 248° |
| 2026-05-07 12:52 | 52.30333 | 12.84545 | 8210 ft | 265 kts | 248° |
| 2026-05-07 12:53 | 52.29645 | 12.81754 | 7825 ft | 265 kts | 248° |
| 2026-05-07 12:53 | 52.28959 | 12.78967 | 7460 ft | 264 kts | 248° |
| 2026-05-07 12:53 | 52.28285 | 12.76231 | 7297 ft | 255 kts | 248° |
| 2026-05-07 12:53 | 52.27630 | 12.73564 | 7165 ft | 253 kts | 248° |
| 2026-05-07 12:54 | 52.26989 | 12.70954 | 6977 ft | 250 kts | 248° |
| 2026-05-07 12:54 | 52.26342 | 12.68314 | 6813 ft | 250 kts | 248° |
| 2026-05-07 12:54 | 52.25463 | 12.65892 | 6640 ft | 248 kts | 223° |
| 2026-05-07 12:54 | 52.24011 | 12.64522 | 6467 ft | 242 kts | 192° |
| 2026-05-07 12:55 | 52.22362 | 12.64520 | 6283 ft | 238 kts | 162° |
| 2026-05-07 12:55 | 52.20814 | 12.65470 | 6104 ft | 238 kts | 155° |
| 2026-05-07 12:55 | 52.19300 | 12.66545 | 5917 ft | 236 kts | 146° |
| 2026-05-07 12:55 | 52.18039 | 12.68372 | 5739 ft | 256 kts | 124° |
| 2026-05-07 12:56 | 52.17278 | 12.71010 | 5555 ft | 259 kts | 101° |
| 2026-05-07 12:56 | 52.17164 | 12.73888 | 5378 ft | 259 kts | 83° |
| 2026-05-07 12:56 | 52.17611 | 12.76720 | 5143 ft | 259 kts | 68° |
| 2026-05-07 12:56 | 52.18293 | 12.79488 | 4894 ft | 279 kts | 68° |
| 2026-05-07 12:57 | 52.19043 | 12.82544 | 4627 ft | 296 kts | 68° |
| 2026-05-07 12:57 | 52.19811 | 12.85682 | 4378 ft | 299 kts | 68° |
| 2026-05-07 12:57 | 52.20578 | 12.88825 | 4243 ft | 298 kts | 68° |
| 2026-05-07 12:57 | 52.21327 | 12.91901 | 4104 ft | 284 kts | 68° |
| 2026-05-07 12:58 | 52.22027 | 12.94811 | 3969 ft | 268 kts | 68° |
| 2026-05-07 12:58 | 52.22675 | 12.97567 | 3855 ft | 253 kts | 68° |
| 2026-05-07 12:58 | 52.23286 | 13.00102 | 3822 ft | 235 kts | 67° |
| 2026-05-07 12:58 | 52.23869 | 13.02496 | 3821 ft | 219 kts | 67° |
| 2026-05-07 12:59 | 52.24414 | 13.04736 | 3819 ft | 206 kts | 66° |
| 2026-05-07 12:59 | 52.24934 | 13.06881 | 3818 ft | 202 kts | 67° |
| 2026-05-07 12:59 | 52.25446 | 13.08990 | 3817 ft | 199 kts | 67° |
| 2026-05-07 12:59 | 52.25958 | 13.11101 | 3820 ft | 199 kts | 67° |
| 2026-05-07 13:00 | 52.26455 | 13.13157 | 3829 ft | 188 kts | 67° |
| 2026-05-07 13:00 | 52.26923 | 13.15091 | 3855 ft | 181 kts | 67° |
| 2026-05-07 13:00 | 52.27383 | 13.16994 | 3842 ft | 179 kts | 67° |
| 2026-05-07 13:00 | 52.27830 | 13.18848 | 3776 ft | 176 kts | 67° |
| 2026-05-07 13:01 | 52.28269 | 13.20667 | 3603 ft | 169 kts | 67° |
| 2026-05-07 13:01 | 52.28698 | 13.22447 | 3396 ft | 168 kts | 66° |
| 2026-05-07 13:01 | 52.29127 | 13.24226 | 3177 ft | 169 kts | 67° |
| 2026-05-07 13:01 | 52.29562 | 13.26033 | 2946 ft | 173 kts | 66° |
| 2026-05-07 13:02 | 52.30011 | 13.27901 | 2711 ft | 180 kts | 68° |
| 2026-05-07 13:02 | 52.30468 | 13.29802 | 2449 ft | 179 kts | 68° |
| 2026-05-07 13:02 | 52.30919 | 13.31688 | 2203 ft | 176 kts | 67° |
| 2026-05-07 13:02 | 52.31347 | 13.33475 | 1954 ft | 161 kts | 67° |
| 2026-05-07 13:03 | 52.31736 | 13.35100 | 1754 ft | 146 kts | 68° |
| 2026-05-07 13:03 | 52.32096 | 13.36603 | 1542 ft | 139 kts | 66° |
| 2026-05-07 13:03 | 52.32447 | 13.38059 | 1377 ft | 136 kts | 66° |
| 2026-05-07 13:03 | 52.32787 | 13.39502 | 1185 ft | 136 kts | 67° |
| 2026-05-07 13:04 | 52.33124 | 13.40938 | 969 ft | 136 kts | 68° |
| 2026-05-07 13:04 | 52.33471 | 13.42379 | 757 ft | 136 kts | 68° |
| 2026-05-07 13:04 | 52.33703 | 13.43348 | 642 ft | 135 kts | 68° |
| 2026-05-07 13:04 | 52.34153 | 13.45228 | 410 ft | 134 kts | 68° |
| 2026-05-07 13:05 | 52.34492 | 13.46658 | 242 ft | 135 kts | 68° |
| 2026-05-07 13:05 | 52.34818 | 13.48048 | 163 ft | 120 kts | 69° |
| 2026-05-07 13:05 | 52.35076 | 13.49091 | 158 ft | 74 kts | 68° |
| 2026-05-07 13:05 | 52.35201 | 13.49613 | 158 ft | 29 kts | 69° |
| 2026-05-07 13:06 | 52.35251 | 13.49782 | 157 ft | 23 kts | 58° |
| 2026-05-07 13:06 | 52.35340 | 13.49949 | 154 ft | 13 kts | 39° |
| 2026-05-07 13:06 | 52.35401 | 13.50030 | 153 ft | 13 kts | 39° |
| 2026-05-07 13:06 | 52.35481 | 13.50136 | 149 ft | 14 kts | 39° |
| 2026-05-07 13:07 | 52.35567 | 13.50247 | 148 ft | 16 kts | 38° |
| 2026-05-07 13:07 | 52.35614 | 13.50361 | 148 ft | 10 kts | 68° |
| 2026-05-07 13:07 | 52.35644 | 13.50485 | 148 ft | 13 kts | 68° |
| 2026-05-07 13:07 | 52.35680 | 13.50636 | 148 ft | 15 kts | 69° |
| 2026-05-07 13:08 | 52.35714 | 13.50777 | 149 ft | 9 kts | 68° |
| 2026-05-07 13:08 | 52.35763 | 13.50826 | 150 ft | 10 kts | 354° |
| 2026-05-07 13:08 | 52.35823 | 13.50794 | 151 ft | 7 kts | 339° |
| 2026-05-07 13:08 | 52.35875 | 13.50761 | 153 ft | 13 kts | 339° |
| 2026-05-07 13:09 | 52.35976 | 13.50696 | 155 ft | 13 kts | 339° |
| 2026-05-07 13:09 | 52.36017 | 13.50674 | 153 ft | 4 kts | 353° |
| 2026-05-07 13:09 | 52.36033 | 13.50689 | 153 ft | 2 kts | 49° |
| 2026-05-07 13:09 | 52.36040 | 13.50720 | 154 ft | 3 kts | 71° |
| 2026-05-07 13:10 | 52.36050 | 13.50766 | 154 ft | 6 kts | 69° |
| 2026-05-07 13:10 | 52.36057 | 13.50795 | 154 ft | 0 kts | 70° |